San Francisco, Colorado
Current Conditions -  °F | °C
As of 10:05 AM on Thursday 30 Oct 2014 (Local Time) from KVTP Reporting Station
Clear Clear  
Wind Chill: 41°   Ceiling: Unl
Heat Index: 41°   Visibility: 10mi
Dew Point: 18°   Wind: 3mph
Humidity: 39%   Direction: 40°NE
Pressure: 30.52"   Gusts: NA
Location:  37.1568°N, 105.289°W
Report Text: KVTP 301605Z AUTO 04003KT 10SM CLR 05/M08 A3052 RMK AO2
Loading
Personal Weather Stations






























Interactive Weather Map
Tropical Storm Tracking
New forecast layout! Learn more

10-Day Weather Forecast

Advertisements
Track Severe Weather on mobile